sensor_id;sensor_type;location;lat;lon;timestamp;temperature;humidity
2391;DHT22;22957;50.824;4.360;2023-08-30T00:01:58;17.70;99.90
2391;DHT22;22957;50.824;4.360;2023-08-30T00:04:24;17.40;99.90
2391;DHT22;22957;50.824;4.360;2023-08-30T00:06:50;17.70;99.90
2391;DHT22;22957;50.824;4.360;2023-08-30T00:09:15;17.70;99.90
2391;DHT22;22957;50.824;4.360;2023-08-30T00:11:41;17.60;99.90
2391;DHT22;22957;50.824;4.360;2023-08-30T00:14:07;17.60;99.90
2391;DHT22;22957;50.824;4.360;2023-08-30T00:16:33;17.40;99.90
2391;DHT22;22957;50.824;4.360;2023-08-30T00:18:59;17.20;99.90
2391;DHT22;22957;50.824;4.360;2023-08-30T00:21:25;17.40;99.90
2391;DHT22;22957;50.824;4.360;2023-08-30T00:23:51;17.30;99.90
2391;DHT22;22957;50.824;4.360;2023-08-30T00:26:17;17.10;99.90
2391;DHT22;22957;50.824;4.360;2023-08-30T00:28:42;17.20;99.90
2391;DHT22;22957;50.824;4.360;2023-08-30T00:31:08;17.10;99.90
2391;DHT22;22957;50.824;4.360;2023-08-30T00:33:34;17.30;99.90
2391;DHT22;22957;50.824;4.360;2023-08-30T00:36:00;17.30;99.90
2391;DHT22;22957;50.824;4.360;2023-08-30T00:38:27;17.10;99.90
2391;DHT22;22957;50.824;4.360;2023-08-30T00:40:53;16.90;99.90
2391;DHT22;22957;50.824;4.360;2023-08-30T00:43:20;16.80;99.90
2391;DHT22;22957;50.824;4.360;2023-08-30T00:45:46;16.70;99.90
2391;DHT22;22957;50.824;4.360;2023-08-30T00:48:13;17.00;99.90
2391;DHT22;22957;50.824;4.360;2023-08-30T00:50:39;17.00;99.90
2391;DHT22;22957;50.824;4.360;2023-08-30T00:53:06;17.00;99.90
2391;DHT22;22957;50.824;4.360;2023-08-30T00:55:36;16.80;99.90
2391;DHT22;22957;50.824;4.360;2023-08-30T00:58:02;16.80;99.90
2391;DHT22;22957;50.824;4.360;2023-08-30T01:00:31;16.60;99.90
2391;DHT22;22957;50.824;4.360;2023-08-30T01:02:56;16.90;99.90
2391;DHT22;22957;50.824;4.360;2023-08-30T01:05:23;17.00;99.90
2391;DHT22;22957;50.824;4.360;2023-08-30T01:07:52;16.70;99.90
2391;DHT22;22957;50.824;4.360;2023-08-30T01:10:21;16.50;99.90
2391;DHT22;22957;50.824;4.360;2023-08-30T01:12:50;16.40;99.90
2391;DHT22;22957;50.824;4.360;2023-08-30T01:15:19;16.70;99.90
2391;DHT22;22957;50.824;4.360;2023-08-30T01:17:47;17.10;99.90
2391;DHT22;22957;50.824;4.360;2023-08-30T01:20:15;17.00;99.90
2391;DHT22;22957;50.824;4.360;2023-08-30T01:22:59;16.70;99.90
2391;DHT22;22957;50.824;4.360;2023-08-30T01:28:10;16.80;99.90
2391;DHT22;22957;50.824;4.360;2023-08-30T01:30:40;16.60;99.90
2391;DHT22;22957;50.824;4.360;2023-08-30T01:33:08;16.40;99.90
2391;DHT22;22957;50.824;4.360;2023-08-30T01:35:34;16.60;99.90
2391;DHT22;22957;50.824;4.360;2023-08-30T01:38:03;16.70;99.90
2391;DHT22;22957;50.824;4.360;2023-08-30T01:40:33;16.60;99.90
2391;DHT22;22957;50.824;4.360;2023-08-30T01:43:00;16.40;99.90
2391;DHT22;22957;50.824;4.360;2023-08-30T01:45:27;16.40;99.90
2391;DHT22;22957;50.824;4.360;2023-08-30T01:47:55;16.60;99.90
2391;DHT22;22957;50.824;4.360;2023-08-30T01:50:21;16.40;99.90
2391;DHT22;22957;50.824;4.360;2023-08-30T01:52:47;16.30;99.90
2391;DHT22;22957;50.824;4.360;2023-08-30T01:55:14;16.40;99.90
2391;DHT22;22957;50.824;4.360;2023-08-30T01:57:40;16.30;99.90
2391;DHT22;22957;50.824;4.360;2023-08-30T02:00:06;16.20;99.90
2391;DHT22;22957;50.824;4.360;2023-08-30T02:02:33;16.20;99.90
2391;DHT22;22957;50.824;4.360;2023-08-30T02:04:58;16.00;99.90
2391;DHT22;22957;50.824;4.360;2023-08-30T02:07:30;16.40;99.90
2391;DHT22;22957;50.824;4.360;2023-08-30T02:10:02;16.10;99.90
2391;DHT22;22957;50.824;4.360;2023-08-30T02:12:34;16.00;99.90
2391;DHT22;22957;50.824;4.360;2023-08-30T02:15:01;16.50;99.90
2391;DHT22;22957;50.824;4.360;2023-08-30T02:17:27;16.00;99.90
2391;DHT22;22957;50.824;4.360;2023-08-30T02:19:55;16.20;99.90
2391;DHT22;22957;50.824;4.360;2023-08-30T02:22:20;16.10;99.90
2391;DHT22;22957;50.824;4.360;2023-08-30T02:24:47;16.10;99.90
2391;DHT22;22957;50.824;4.360;2023-08-30T02:27:13;16.20;99.90
2391;DHT22;22957;50.824;4.360;2023-08-30T02:29:38;16.80;99.90
2391;DHT22;22957;50.824;4.360;2023-08-30T02:32:04;16.60;99.90
2391;DHT22;22957;50.824;4.360;2023-08-30T02:34:30;16.70;99.90
2391;DHT22;22957;50.824;4.360;2023-08-30T02:36:56;16.90;99.90
2391;DHT22;22957;50.824;4.360;2023-08-30T02:39:21;16.90;99.90
2391;DHT22;22957;50.824;4.360;2023-08-30T02:41:47;16.90;99.90
2391;DHT22;22957;50.824;4.360;2023-08-30T02:44:12;17.10;99.90
2391;DHT22;22957;50.824;4.360;2023-08-30T02:46:38;17.10;99.90
2391;DHT22;22957;50.824;4.360;2023-08-30T02:49:04;16.90;99.90
2391;DHT22;22957;50.824;4.360;2023-08-30T02:51:29;16.90;99.90
2391;DHT22;22957;50.824;4.360;2023-08-30T02:53:55;17.20;99.90
2391;DHT22;22957;50.824;4.360;2023-08-30T02:56:20;17.10;99.90
2391;DHT22;22957;50.824;4.360;2023-08-30T02:58:46;17.30;99.90
2391;DHT22;22957;50.824;4.360;2023-08-30T03:01:12;17.20;99.90
2391;DHT22;22957;50.824;4.360;2023-08-30T03:03:37;17.20;99.90
2391;DHT22;22957;50.824;4.360;2023-08-30T03:06:03;17.30;99.90
2391;DHT22;22957;50.824;4.360;2023-08-30T03:08:28;17.50;99.90
2391;DHT22;22957;50.824;4.360;2023-08-30T03:10:54;17.60;99.90
2391;DHT22;22957;50.824;4.360;2023-08-30T03:13:20;17.40;99.90
2391;DHT22;22957;50.824;4.360;2023-08-30T03:15:45;17.50;99.90
2391;DHT22;22957;50.824;4.360;2023-08-30T03:18:11;17.40;99.90
2391;DHT22;22957;50.824;4.360;2023-08-30T03:20:36;17.20;99.90
2391;DHT22;22957;50.824;4.360;2023-08-30T03:23:02;17.10;99.90
2391;DHT22;22957;50.824;4.360;2023-08-30T03:25:31;17.40;99.90
2391;DHT22;22957;50.824;4.360;2023-08-30T03:27:56;17.10;99.90
2391;DHT22;22957;50.824;4.360;2023-08-30T03:30:22;17.10;99.90
2391;DHT22;22957;50.824;4.360;2023-08-30T03:32:47;17.20;99.90
2391;DHT22;22957;50.824;4.360;2023-08-30T03:35:13;17.10;99.90
2391;DHT22;22957;50.824;4.360;2023-08-30T03:37:41;17.10;99.90
2391;DHT22;22957;50.824;4.360;2023-08-30T03:40:07;17.30;99.90
2391;DHT22;22957;50.824;4.360;2023-08-30T03:42:32;16.80;99.90
2391;DHT22;22957;50.824;4.360;2023-08-30T03:44:58;16.90;99.90
2391;DHT22;22957;50.824;4.360;2023-08-30T03:47:24;17.00;99.90
2391;DHT22;22957;50.824;4.360;2023-08-30T03:49:49;16.90;99.90
2391;DHT22;22957;50.824;4.360;2023-08-30T03:52:14;17.20;99.90
2391;DHT22;22957;50.824;4.360;2023-08-30T03:54:40;16.70;99.90
2391;DHT22;22957;50.824;4.360;2023-08-30T03:57:06;17.00;99.90
2391;DHT22;22957;50.824;4.360;2023-08-30T03:59:31;16.70;99.90
2391;DHT22;22957;50.824;4.360;2023-08-30T04:01:58;16.90;99.90
2391;DHT22;22957;50.824;4.360;2023-08-30T04:04:24;16.90;99.90
2391;DHT22;22957;50.824;4.360;2023-08-30T04:06:49;16.90;99.90
2391;DHT22;22957;50.824;4.360;2023-08-30T04:09:15;17.10;99.90
2391;DHT22;22957;50.824;4.360;2023-08-30T04:11:41;17.10;99.90
2391;DHT22;22957;50.824;4.360;2023-08-30T04:14:07;17.00;99.90
2391;DHT22;22957;50.824;4.360;2023-08-30T04:16:33;17.10;99.90
2391;DHT22;22957;50.824;4.360;2023-08-30T04:18:58;17.10;99.90
2391;DHT22;22957;50.824;4.360;2023-08-30T04:21:24;17.10;99.90
2391;DHT22;22957;50.824;4.360;2023-08-30T04:23:49;17.10;99.90
2391;DHT22;22957;50.824;4.360;2023-08-30T04:26:15;17.20;99.90
2391;DHT22;22957;50.824;4.360;2023-08-30T04:28:40;17.10;99.90
2391;DHT22;22957;50.824;4.360;2023-08-30T04:31:06;17.20;99.90
2391;DHT22;22957;50.824;4.360;2023-08-30T04:33:31;17.00;99.90
2391;DHT22;22957;50.824;4.360;2023-08-30T04:35:58;17.00;99.90
2391;DHT22;22957;50.824;4.360;2023-08-30T04:38:26;16.70;99.90
2391;DHT22;22957;50.824;4.360;2023-08-30T04:40:56;16.70;99.90
2391;DHT22;22957;50.824;4.360;2023-08-30T04:43:21;16.60;99.90
2391;DHT22;22957;50.824;4.360;2023-08-30T04:45:47;16.80;99.90
2391;DHT22;22957;50.824;4.360;2023-08-30T04:48:13;16.50;99.90
2391;DHT22;22957;50.824;4.360;2023-08-30T04:50:38;16.70;99.90
2391;DHT22;22957;50.824;4.360;2023-08-30T04:53:04;16.50;99.90
2391;DHT22;22957;50.824;4.360;2023-08-30T04:55:29;16.60;99.90
2391;DHT22;22957;50.824;4.360;2023-08-30T04:57:55;16.20;99.90
2391;DHT22;22957;50.824;4.360;2023-08-30T05:00:20;16.50;99.90
2391;DHT22;22957;50.824;4.360;2023-08-30T05:02:46;16.40;99.90
2391;DHT22;22957;50.824;4.360;2023-08-30T05:05:12;16.50;99.90
2391;DHT22;22957;50.824;4.360;2023-08-30T05:07:37;16.20;99.90
2391;DHT22;22957;50.824;4.360;2023-08-30T05:10:03;16.40;99.90
2391;DHT22;22957;50.824;4.360;2023-08-30T05:12:29;16.40;99.90
2391;DHT22;22957;50.824;4.360;2023-08-30T05:14:54;16.40;99.90
2391;DHT22;22957;50.824;4.360;2023-08-30T05:17:20;16.60;99.90
2391;DHT22;22957;50.824;4.360;2023-08-30T05:19:45;16.60;99.90
2391;DHT22;22957;50.824;4.360;2023-08-30T05:22:11;16.40;99.90
2391;DHT22;22957;50.824;4.360;2023-08-30T05:24:36;16.30;99.90
2391;DHT22;22957;50.824;4.360;2023-08-30T05:27:02;16.40;99.90
2391;DHT22;22957;50.824;4.360;2023-08-30T05:29:27;16.30;99.90
2391;DHT22;22957;50.824;4.360;2023-08-30T05:31:53;16.30;99.90
2391;DHT22;22957;50.824;4.360;2023-08-30T05:34:18;16.20;99.90
2391;DHT22;22957;50.824;4.360;2023-08-30T05:36:44;16.40;99.90
2391;DHT22;22957;50.824;4.360;2023-08-30T05:39:09;16.60;99.90
2391;DHT22;22957;50.824;4.360;2023-08-30T05:41:35;16.20;99.90
2391;DHT22;22957;50.824;4.360;2023-08-30T05:44:00;16.20;99.90
2391;DHT22;22957;50.824;4.360;2023-08-30T05:46:26;16.10;99.90
2391;DHT22;22957;50.824;4.360;2023-08-30T05:48:51;16.50;99.90
2391;DHT22;22957;50.824;4.360;2023-08-30T05:51:17;15.90;99.90
2391;DHT22;22957;50.824;4.360;2023-08-30T05:53:42;16.20;99.90
2391;DHT22;22957;50.824;4.360;2023-08-30T05:56:08;16.30;99.90
2391;DHT22;22957;50.824;4.360;2023-08-30T05:58:33;16.30;99.90
2391;DHT22;22957;50.824;4.360;2023-08-30T06:00:59;16.60;99.90
2391;DHT22;22957;50.824;4.360;2023-08-30T06:03:28;16.70;99.90
2391;DHT22;22957;50.824;4.360;2023-08-30T06:05:53;16.60;99.90
2391;DHT22;22957;50.824;4.360;2023-08-30T06:08:19;16.80;99.90
2391;DHT22;22957;50.824;4.360;2023-08-30T06:10:44;16.60;99.90
2391;DHT22;22957;50.824;4.360;2023-08-30T06:13:10;16.40;99.90
2391;DHT22;22957;50.824;4.360;2023-08-30T06:15:36;16.70;99.90
2391;DHT22;22957;50.824;4.360;2023-08-30T06:18:03;16.90;99.90
2391;DHT22;22957;50.824;4.360;2023-08-30T06:20:29;16.90;99.90
2391;DHT22;22957;50.824;4.360;2023-08-30T06:22:54;16.90;99.90
2391;DHT22;22957;50.824;4.360;2023-08-30T06:25:20;16.80;99.90
2391;DHT22;22957;50.824;4.360;2023-08-30T06:27:54;16.50;99.90
2391;DHT22;22957;50.824;4.360;2023-08-30T06:30:21;16.50;99.90
2391;DHT22;22957;50.824;4.360;2023-08-30T06:32:48;16.50;99.90
2391;DHT22;22957;50.824;4.360;2023-08-30T06:35:13;16.70;99.90
2391;DHT22;22957;50.824;4.360;2023-08-30T06:37:39;16.70;99.90
2391;DHT22;22957;50.824;4.360;2023-08-30T06:40:05;16.60;99.90
2391;DHT22;22957;50.824;4.360;2023-08-30T06:42:31;16.60;99.90
2391;DHT22;22957;50.824;4.360;2023-08-30T06:44:56;16.70;99.90
2391;DHT22;22957;50.824;4.360;2023-08-30T06:47:22;16.60;99.90
2391;DHT22;22957;50.824;4.360;2023-08-30T06:49:47;16.80;99.90
2391;DHT22;22957;50.824;4.360;2023-08-30T06:52:13;16.30;99.90
2391;DHT22;22957;50.824;4.360;2023-08-30T06:54:38;16.50;99.90
2391;DHT22;22957;50.824;4.360;2023-08-30T06:57:04;16.10;99.90
2391;DHT22;22957;50.824;4.360;2023-08-30T06:59:31;16.70;99.90
2391;DHT22;22957;50.824;4.360;2023-08-30T07:01:57;16.30;99.90
2391;DHT22;22957;50.824;4.360;2023-08-30T07:04:22;16.40;99.90
2391;DHT22;22957;50.824;4.360;2023-08-30T07:06:48;16.60;99.90
2391;DHT22;22957;50.824;4.360;2023-08-30T07:09:13;16.20;99.90
2391;DHT22;22957;50.824;4.360;2023-08-30T07:11:39;16.20;99.90
2391;DHT22;22957;50.824;4.360;2023-08-30T07:14:07;16.70;99.90
2391;DHT22;22957;50.824;4.360;2023-08-30T07:16:32;16.60;99.90
2391;DHT22;22957;50.824;4.360;2023-08-30T07:18:58;16.50;99.90
2391;DHT22;22957;50.824;4.360;2023-08-30T07:21:24;16.80;99.90
2391;DHT22;22957;50.824;4.360;2023-08-30T07:23:50;16.60;99.90
2391;DHT22;22957;50.824;4.360;2023-08-30T07:26:15;16.60;99.90
2391;DHT22;22957;50.824;4.360;2023-08-30T07:28:41;16.90;99.90
2391;DHT22;22957;50.824;4.360;2023-08-30T07:31:07;16.90;99.90
2391;DHT22;22957;50.824;4.360;2023-08-30T07:33:32;16.80;99.90
2391;DHT22;22957;50.824;4.360;2023-08-30T07:35:58;16.70;99.90
2391;DHT22;22957;50.824;4.360;2023-08-30T07:38:24;16.60;99.90
2391;DHT22;22957;50.824;4.360;2023-08-30T07:40:49;16.80;99.90
2391;DHT22;22957;50.824;4.360;2023-08-30T07:43:15;16.80;99.90
2391;DHT22;22957;50.824;4.360;2023-08-30T07:45:41;16.90;99.90
2391;DHT22;22957;50.824;4.360;2023-08-30T07:48:06;16.90;99.90
2391;DHT22;22957;50.824;4.360;2023-08-30T07:50:32;16.70;99.90
2391;DHT22;22957;50.824;4.360;2023-08-30T07:52:57;17.20;99.90
2391;DHT22;22957;50.824;4.360;2023-08-30T07:55:23;16.90;99.90
2391;DHT22;22957;50.824;4.360;2023-08-30T07:57:48;17.30;99.90
2391;DHT22;22957;50.824;4.360;2023-08-30T08:00:14;17.20;99.90
2391;DHT22;22957;50.824;4.360;2023-08-30T08:02:40;17.10;99.90
2391;DHT22;22957;50.824;4.360;2023-08-30T08:05:06;17.00;99.90
2391;DHT22;22957;50.824;4.360;2023-08-30T08:07:32;16.90;99.90
2391;DHT22;22957;50.824;4.360;2023-08-30T08:09:58;17.00;99.90
2391;DHT22;22957;50.824;4.360;2023-08-30T08:12:23;17.00;99.90
2391;DHT22;22957;50.824;4.360;2023-08-30T08:14:49;17.00;99.90
2391;DHT22;22957;50.824;4.360;2023-08-30T08:17:15;17.30;99.90
2391;DHT22;22957;50.824;4.360;2023-08-30T08:19:40;16.90;99.90
2391;DHT22;22957;50.824;4.360;2023-08-30T08:22:08;16.70;99.90
2391;DHT22;22957;50.824;4.360;2023-08-30T08:24:34;16.60;99.90
2391;DHT22;22957;50.824;4.360;2023-08-30T08:26:59;16.80;99.90
2391;DHT22;22957;50.824;4.360;2023-08-30T08:29:27;16.70;99.90
2391;DHT22;22957;50.824;4.360;2023-08-30T08:31:53;16.80;99.90
2391;DHT22;22957;50.824;4.360;2023-08-30T08:34:19;17.10;99.90
2391;DHT22;22957;50.824;4.360;2023-08-30T08:36:45;17.10;99.90
2391;DHT22;22957;50.824;4.360;2023-08-30T08:39:10;16.80;99.90
2391;DHT22;22957;50.824;4.360;2023-08-30T08:41:40;17.20;99.90
2391;DHT22;22957;50.824;4.360;2023-08-30T08:44:07;17.10;99.90
2391;DHT22;22957;50.824;4.360;2023-08-30T08:46:34;17.50;99.90
2391;DHT22;22957;50.824;4.360;2023-08-30T08:49:09;17.60;99.90
2391;DHT22;22957;50.824;4.360;2023-08-30T08:51:36;17.70;99.90
2391;DHT22;22957;50.824;4.360;2023-08-30T08:54:04;18.00;99.90
2391;DHT22;22957;50.824;4.360;2023-08-30T08:56:31;18.10;99.90
2391;DHT22;22957;50.824;4.360;2023-08-30T08:58:57;18.00;99.90
2391;DHT22;22957;50.824;4.360;2023-08-30T09:01:24;18.10;99.90
2391;DHT22;22957;50.824;4.360;2023-08-30T09:03:50;18.40;99.90
2391;DHT22;22957;50.824;4.360;2023-08-30T09:06:15;18.60;99.90
2391;DHT22;22957;50.824;4.360;2023-08-30T09:08:41;18.70;99.90
2391;DHT22;22957;50.824;4.360;2023-08-30T09:11:07;18.90;99.90
2391;DHT22;22957;50.824;4.360;2023-08-30T09:13:32;18.60;99.90
2391;DHT22;22957;50.824;4.360;2023-08-30T09:15:59;18.70;99.90
2391;DHT22;22957;50.824;4.360;2023-08-30T09:18:24;18.80;99.90
2391;DHT22;22957;50.824;4.360;2023-08-30T09:20:53;18.80;99.90
2391;DHT22;22957;50.824;4.360;2023-08-30T09:23:19;18.80;99.90
2391;DHT22;22957;50.824;4.360;2023-08-30T09:25:46;18.80;99.90
2391;DHT22;22957;50.824;4.360;2023-08-30T09:28:12;19.00;99.90
2391;DHT22;22957;50.824;4.360;2023-08-30T09:30:39;19.10;99.90
2391;DHT22;22957;50.824;4.360;2023-08-30T09:33:04;19.40;99.90
2391;DHT22;22957;50.824;4.360;2023-08-30T09:35:30;19.50;99.90
2391;DHT22;22957;50.824;4.360;2023-08-30T09:37:56;19.50;99.90
2391;DHT22;22957;50.824;4.360;2023-08-30T09:40:21;19.60;99.90
2391;DHT22;22957;50.824;4.360;2023-08-30T09:42:47;19.40;99.90
2391;DHT22;22957;50.824;4.360;2023-08-30T09:45:22;19.20;99.90
2391;DHT22;22957;50.824;4.360;2023-08-30T09:47:48;19.40;99.90
2391;DHT22;22957;50.824;4.360;2023-08-30T09:50:17;19.50;99.90
2391;DHT22;22957;50.824;4.360;2023-08-30T09:52:44;19.10;99.90
2391;DHT22;22957;50.824;4.360;2023-08-30T09:55:10;19.30;99.90
2391;DHT22;22957;50.824;4.360;2023-08-30T09:57:35;19.30;99.90
2391;DHT22;22957;50.824;4.360;2023-08-30T10:00:01;19.40;99.90
2391;DHT22;22957;50.824;4.360;2023-08-30T10:02:29;19.40;99.90
2391;DHT22;22957;50.824;4.360;2023-08-30T10:04:56;19.40;99.90
2391;DHT22;22957;50.824;4.360;2023-08-30T10:07:22;19.30;99.90
2391;DHT22;22957;50.824;4.360;2023-08-30T10:09:48;19.10;99.90
2391;DHT22;22957;50.824;4.360;2023-08-30T10:12:16;19.00;99.90
2391;DHT22;22957;50.824;4.360;2023-08-30T10:14:42;19.10;99.90
2391;DHT22;22957;50.824;4.360;2023-08-30T10:17:07;19.20;99.90
2391;DHT22;22957;50.824;4.360;2023-08-30T10:19:34;18.90;99.90
2391;DHT22;22957;50.824;4.360;2023-08-30T10:22:05;18.60;99.90
2391;DHT22;22957;50.824;4.360;2023-08-30T10:24:40;18.80;99.90
2391;DHT22;22957;50.824;4.360;2023-08-30T10:27:07;18.80;99.90
2391;DHT22;22957;50.824;4.360;2023-08-30T10:29:34;18.70;99.90
2391;DHT22;22957;50.824;4.360;2023-08-30T10:32:04;19.00;99.90
2391;DHT22;22957;50.824;4.360;2023-08-30T10:34:36;19.30;99.90
2391;DHT22;22957;50.824;4.360;2023-08-30T10:37:06;19.80;99.90
2391;DHT22;22957;50.824;4.360;2023-08-30T10:39:39;19.90;99.90
2391;DHT22;22957;50.824;4.360;2023-08-30T10:44:33;20.50;99.90
2391;DHT22;22957;50.824;4.360;2023-08-30T10:46:58;20.50;99.90
2391;DHT22;22957;50.824;4.360;2023-08-30T10:49:26;20.60;99.90
2391;DHT22;22957;50.824;4.360;2023-08-30T10:51:56;21.10;99.90
2391;DHT22;22957;50.824;4.360;2023-08-30T10:54:36;20.80;99.90
2391;DHT22;22957;50.824;4.360;2023-08-30T10:57:02;20.70;99.90
2391;DHT22;22957;50.824;4.360;2023-08-30T10:59:28;20.80;99.90
2391;DHT22;22957;50.824;4.360;2023-08-30T11:01:54;21.20;99.90
2391;DHT22;22957;50.824;4.360;2023-08-30T11:04:21;21.30;99.90
2391;DHT22;22957;50.824;4.360;2023-08-30T11:06:50;21.20;99.90
2391;DHT22;22957;50.824;4.360;2023-08-30T11:09:21;21.10;99.90
2391;DHT22;22957;50.824;4.360;2023-08-30T11:11:48;21.50;99.90
2391;DHT22;22957;50.824;4.360;2023-08-30T11:14:14;20.90;99.90
2391;DHT22;22957;50.824;4.360;2023-08-30T11:16:39;21.30;99.90
2391;DHT22;22957;50.824;4.360;2023-08-30T11:19:05;21.40;99.90
2391;DHT22;22957;50.824;4.360;2023-08-30T11:21:32;21.50;99.90
2391;DHT22;22957;50.824;4.360;2023-08-30T11:23:58;21.40;99.90
2391;DHT22;22957;50.824;4.360;2023-08-30T11:26:23;21.70;99.90
2391;DHT22;22957;50.824;4.360;2023-08-30T11:28:49;21.80;99.90
2391;DHT22;22957;50.824;4.360;2023-08-30T11:31:25;22.00;99.90
2391;DHT22;22957;50.824;4.360;2023-08-30T11:33:54;22.70;99.90
2391;DHT22;22957;50.824;4.360;2023-08-30T11:36:21;23.30;99.90
2391;DHT22;22957;50.824;4.360;2023-08-30T11:38:49;24.30;99.90
2391;DHT22;22957;50.824;4.360;2023-08-30T11:41:15;24.60;99.90
2391;DHT22;22957;50.824;4.360;2023-08-30T11:43:40;24.80;99.90
2391;DHT22;22957;50.824;4.360;2023-08-30T11:46:06;24.60;99.90
2391;DHT22;22957;50.824;4.360;2023-08-30T11:48:33;25.70;99.90
2391;DHT22;22957;50.824;4.360;2023-08-30T11:50:59;25.80;99.90
2391;DHT22;22957;50.824;4.360;2023-08-30T11:53:25;25.80;99.90
2391;DHT22;22957;50.824;4.360;2023-08-30T11:55:52;25.90;99.90
2391;DHT22;22957;50.824;4.360;2023-08-30T11:58:18;25.90;99.90
2391;DHT22;22957;50.824;4.360;2023-08-30T12:00:45;25.80;99.90
2391;DHT22;22957;50.824;4.360;2023-08-30T12:03:13;26.10;99.90
2391;DHT22;22957;50.824;4.360;2023-08-30T12:05:47;25.70;99.90
2391;DHT22;22957;50.824;4.360;2023-08-30T12:08:45;25.60;99.90
2391;DHT22;22957;50.824;4.360;2023-08-30T12:11:20;24.80;99.90
2391;DHT22;22957;50.824;4.360;2023-08-30T12:13:46;25.00;99.90
2391;DHT22;22957;50.824;4.360;2023-08-30T12:16:16;25.00;99.90
2391;DHT22;22957;50.824;4.360;2023-08-30T12:18:43;24.80;99.90
2391;DHT22;22957;50.824;4.360;2023-08-30T12:21:09;24.50;99.90
2391;DHT22;22957;50.824;4.360;2023-08-30T12:23:34;24.50;99.90
2391;DHT22;22957;50.824;4.360;2023-08-30T12:26:07;25.00;99.90
2391;DHT22;22957;50.824;4.360;2023-08-30T12:28:34;25.30;99.90
2391;DHT22;22957;50.824;4.360;2023-08-30T12:31:01;25.10;99.90
2391;DHT22;22957;50.824;4.360;2023-08-30T12:33:27;25.10;99.90
2391;DHT22;22957;50.824;4.360;2023-08-30T12:35:56;25.30;99.90
2391;DHT22;22957;50.824;4.360;2023-08-30T12:38:22;25.30;99.90
2391;DHT22;22957;50.824;4.360;2023-08-30T12:40:52;25.40;99.90
2391;DHT22;22957;50.824;4.360;2023-08-30T12:43:19;25.40;99.90
2391;DHT22;22957;50.824;4.360;2023-08-30T12:45:46;26.10;99.90
2391;DHT22;22957;50.824;4.360;2023-08-30T12:48:14;26.70;99.90
2391;DHT22;22957;50.824;4.360;2023-08-30T12:50:46;25.10;99.90
2391;DHT22;22957;50.824;4.360;2023-08-30T12:53:12;25.10;99.90
2391;DHT22;22957;50.824;4.360;2023-08-30T12:55:38;24.80;99.90
2391;DHT22;22957;50.824;4.360;2023-08-30T12:58:07;24.70;99.90
2391;DHT22;22957;50.824;4.360;2023-08-30T13:00:33;24.80;99.90
2391;DHT22;22957;50.824;4.360;2023-08-30T13:02:59;24.70;99.90
2391;DHT22;22957;50.824;4.360;2023-08-30T13:05:25;25.10;99.90
2391;DHT22;22957;50.824;4.360;2023-08-30T13:07:51;25.90;99.90
2391;DHT22;22957;50.824;4.360;2023-08-30T13:10:17;26.00;99.90
2391;DHT22;22957;50.824;4.360;2023-08-30T13:12:43;25.90;99.90
2391;DHT22;22957;50.824;4.360;2023-08-30T13:15:09;25.00;99.90
2391;DHT22;22957;50.824;4.360;2023-08-30T13:17:35;25.10;99.90
2391;DHT22;22957;50.824;4.360;2023-08-30T13:20:00;25.20;99.90
2391;DHT22;22957;50.824;4.360;2023-08-30T13:22:27;25.40;99.90
2391;DHT22;22957;50.824;4.360;2023-08-30T13:24:52;24.60;99.90
2391;DHT22;22957;50.824;4.360;2023-08-30T13:27:19;24.30;99.90
2391;DHT22;22957;50.824;4.360;2023-08-30T13:29:45;24.20;99.90
2391;DHT22;22957;50.824;4.360;2023-08-30T13:32:10;23.80;99.90
2391;DHT22;22957;50.824;4.360;2023-08-30T13:34:37;23.70;99.90
2391;DHT22;22957;50.824;4.360;2023-08-30T13:37:02;24.10;99.90
2391;DHT22;22957;50.824;4.360;2023-08-30T13:39:29;24.40;99.90
2391;DHT22;22957;50.824;4.360;2023-08-30T13:41:55;24.50;99.90
2391;DHT22;22957;50.824;4.360;2023-08-30T13:44:20;24.80;99.90
2391;DHT22;22957;50.824;4.360;2023-08-30T13:46:46;25.10;99.90
2391;DHT22;22957;50.824;4.360;2023-08-30T13:49:15;25.00;99.90
2391;DHT22;22957;50.824;4.360;2023-08-30T13:51:41;25.00;99.90
2391;DHT22;22957;50.824;4.360;2023-08-30T13:54:07;25.80;99.90
2391;DHT22;22957;50.824;4.360;2023-08-30T13:56:33;25.00;99.90
2391;DHT22;22957;50.824;4.360;2023-08-30T13:58:59;25.40;99.90
2391;DHT22;22957;50.824;4.360;2023-08-30T14:01:25;24.70;99.90
2391;DHT22;22957;50.824;4.360;2023-08-30T14:03:50;24.70;99.90
2391;DHT22;22957;50.824;4.360;2023-08-30T14:06:16;24.30;99.90
2391;DHT22;22957;50.824;4.360;2023-08-30T14:08:42;24.10;99.90
2391;DHT22;22957;50.824;4.360;2023-08-30T14:11:08;24.30;99.90
2391;DHT22;22957;50.824;4.360;2023-08-30T14:13:34;24.50;99.90
2391;DHT22;22957;50.824;4.360;2023-08-30T14:16:00;24.40;99.90
2391;DHT22;22957;50.824;4.360;2023-08-30T14:18:26;24.50;99.90
2391;DHT22;22957;50.824;4.360;2023-08-30T14:20:58;24.60;99.90
2391;DHT22;22957;50.824;4.360;2023-08-30T14:23:25;24.60;99.90
2391;DHT22;22957;50.824;4.360;2023-08-30T14:25:58;24.80;99.90
2391;DHT22;22957;50.824;4.360;2023-08-30T14:28:25;24.90;99.90
2391;DHT22;22957;50.824;4.360;2023-08-30T14:30:51;24.50;99.90
2391;DHT22;22957;50.824;4.360;2023-08-30T14:33:17;24.20;99.90
2391;DHT22;22957;50.824;4.360;2023-08-30T14:35:43;24.30;99.90
2391;DHT22;22957;50.824;4.360;2023-08-30T14:38:09;24.40;99.90
2391;DHT22;22957;50.824;4.360;2023-08-30T14:40:35;25.00;99.90
2391;DHT22;22957;50.824;4.360;2023-08-30T14:43:03;24.90;99.90
2391;DHT22;22957;50.824;4.360;2023-08-30T14:45:29;24.40;99.90
2391;DHT22;22957;50.824;4.360;2023-08-30T14:47:54;24.20;99.90
2391;DHT22;22957;50.824;4.360;2023-08-30T14:50:20;24.40;99.90
2391;DHT22;22957;50.824;4.360;2023-08-30T14:52:45;24.20;99.90
2391;DHT22;22957;50.824;4.360;2023-08-30T14:55:11;24.20;99.90
2391;DHT22;22957;50.824;4.360;2023-08-30T14:57:36;24.10;99.90
2391;DHT22;22957;50.824;4.360;2023-08-30T15:00:02;24.30;99.90
2391;DHT22;22957;50.824;4.360;2023-08-30T15:02:28;24.20;99.90
2391;DHT22;22957;50.824;4.360;2023-08-30T15:04:54;23.80;99.90
2391;DHT22;22957;50.824;4.360;2023-08-30T15:07:20;23.80;99.90
2391;DHT22;22957;50.824;4.360;2023-08-30T15:09:45;23.50;99.90
2391;DHT22;22957;50.824;4.360;2023-08-30T15:12:11;23.50;99.90
2391;DHT22;22957;50.824;4.360;2023-08-30T15:14:36;24.00;99.90
2391;DHT22;22957;50.824;4.360;2023-08-30T15:17:06;24.00;99.90
2391;DHT22;22957;50.824;4.360;2023-08-30T15:19:32;24.30;99.90
2391;DHT22;22957;50.824;4.360;2023-08-30T15:21:57;24.50;99.90
2391;DHT22;22957;50.824;4.360;2023-08-30T15:24:23;24.50;99.90
2391;DHT22;22957;50.824;4.360;2023-08-30T15:26:49;24.40;99.90
2391;DHT22;22957;50.824;4.360;2023-08-30T15:29:14;24.60;99.90
2391;DHT22;22957;50.824;4.360;2023-08-30T15:31:40;24.50;99.90
2391;DHT22;22957;50.824;4.360;2023-08-30T15:34:05;24.70;99.90
2391;DHT22;22957;50.824;4.360;2023-08-30T15:36:31;24.70;99.90
2391;DHT22;22957;50.824;4.360;2023-08-30T15:38:56;24.70;99.90
2391;DHT22;22957;50.824;4.360;2023-08-30T15:41:22;24.30;99.90
2391;DHT22;22957;50.824;4.360;2023-08-30T15:43:47;24.70;99.90
2391;DHT22;22957;50.824;4.360;2023-08-30T15:46:13;24.30;99.90